sensor_id;sensor_type;location;lat;lon;timestamp;P1;durP1;ratioP1;P2;durP2;ratioP2
12129;SDS011;6128;59.340;18.040;2024-03-02T00:01:35;14.57;;;12.33;;
12129;SDS011;6128;59.340;18.040;2024-03-02T00:04:03;14.13;;;11.67;;
12129;SDS011;6128;59.340;18.040;2024-03-02T00:06:31;19.60;;;11.73;;
12129;SDS011;6128;59.340;18.040;2024-03-02T00:08:59;13.40;;;11.37;;
12129;SDS011;6128;59.340;18.040;2024-03-02T00:11:27;14.37;;;11.23;;
12129;SDS011;6128;59.340;18.040;2024-03-02T00:13:55;14.23;;;9.90;;
12129;SDS011;6128;59.340;18.040;2024-03-02T00:16:22;13.83;;;11.93;;
12129;SDS011;6128;59.340;18.040;2024-03-02T00:18:49;12.33;;;11.07;;
12129;SDS011;6128;59.340;18.040;2024-03-02T00:21:16;14.23;;;11.97;;
12129;SDS011;6128;59.340;18.040;2024-03-02T00:23:46;13.97;;;12.20;;
12129;SDS011;6128;59.340;18.040;2024-03-02T00:26:17;15.03;;;11.40;;
12129;SDS011;6128;59.340;18.040;2024-03-02T00:28:45;15.07;;;12.73;;
12129;SDS011;6128;59.340;18.040;2024-03-02T00:31:15;12.73;;;11.40;;
12129;SDS011;6128;59.340;18.040;2024-03-02T00:33:46;14.87;;;12.97;;
12129;SDS011;6128;59.340;18.040;2024-03-02T00:36:15;14.90;;;12.50;;
12129;SDS011;6128;59.340;18.040;2024-03-02T00:38:44;13.40;;;11.20;;
12129;SDS011;6128;59.340;18.040;2024-03-02T00:41:19;14.40;;;12.70;;
12129;SDS011;6128;59.340;18.040;2024-03-02T00:43:52;13.93;;;12.10;;
12129;SDS011;6128;59.340;18.040;2024-03-02T00:46:24;15.57;;;12.17;;
12129;SDS011;6128;59.340;18.040;2024-03-02T00:48:55;16.57;;;12.10;;
12129;SDS011;6128;59.340;18.040;2024-03-02T00:51:24;12.90;;;11.10;;
12129;SDS011;6128;59.340;18.040;2024-03-02T00:53:53;15.17;;;12.40;;
12129;SDS011;6128;59.340;18.040;2024-03-02T00:56:22;13.93;;;12.53;;
12129;SDS011;6128;59.340;18.040;2024-03-02T00:58:50;17.80;;;12.33;;
12129;SDS011;6128;59.340;18.040;2024-03-02T01:01:18;13.97;;;11.90;;
12129;SDS011;6128;59.340;18.040;2024-03-02T01:03:46;17.43;;;12.53;;
12129;SDS011;6128;59.340;18.040;2024-03-02T01:06:14;15.83;;;12.80;;
12129;SDS011;6128;59.340;18.040;2024-03-02T01:08:41;14.23;;;11.70;;
12129;SDS011;6128;59.340;18.040;2024-03-02T01:11:08;16.93;;;12.13;;
12129;SDS011;6128;59.340;18.040;2024-03-02T01:13:36;13.20;;;11.70;;
12129;SDS011;6128;59.340;18.040;2024-03-02T01:16:05;15.07;;;11.53;;
12129;SDS011;6128;59.340;18.040;2024-03-02T01:18:32;14.33;;;12.13;;
12129;SDS011;6128;59.340;18.040;2024-03-02T01:20:59;14.27;;;12.37;;
12129;SDS011;6128;59.340;18.040;2024-03-02T01:23:26;14.33;;;12.90;;
12129;SDS011;6128;59.340;18.040;2024-03-02T01:25:53;14.90;;;11.63;;
12129;SDS011;6128;59.340;18.040;2024-03-02T01:28:21;16.27;;;12.50;;
12129;SDS011;6128;59.340;18.040;2024-03-02T01:30:48;16.30;;;12.83;;
12129;SDS011;6128;59.340;18.040;2024-03-02T01:33:16;15.77;;;12.60;;
12129;SDS011;6128;59.340;18.040;2024-03-02T01:35:44;15.80;;;12.27;;
12129;SDS011;6128;59.340;18.040;2024-03-02T01:38:11;15.80;;;12.17;;
12129;SDS011;6128;59.340;18.040;2024-03-02T01:40:38;17.93;;;12.97;;
12129;SDS011;6128;59.340;18.040;2024-03-02T01:43:05;17.47;;;13.53;;
12129;SDS011;6128;59.340;18.040;2024-03-02T01:45:33;17.57;;;12.77;;
12129;SDS011;6128;59.340;18.040;2024-03-02T01:48:00;15.77;;;12.87;;
12129;SDS011;6128;59.340;18.040;2024-03-02T01:50:31;13.90;;;12.40;;
12129;SDS011;6128;59.340;18.040;2024-03-02T01:52:59;16.47;;;13.20;;
12129;SDS011;6128;59.340;18.040;2024-03-02T01:55:27;17.70;;;13.10;;
12129;SDS011;6128;59.340;18.040;2024-03-02T01:57:55;12.33;;;11.03;;
12129;SDS011;6128;59.340;18.040;2024-03-02T02:00:23;15.87;;;13.53;;
12129;SDS011;6128;59.340;18.040;2024-03-02T02:02:51;15.63;;;13.20;;
12129;SDS011;6128;59.340;18.040;2024-03-02T02:05:19;17.23;;;13.87;;
12129;SDS011;6128;59.340;18.040;2024-03-02T02:07:47;16.63;;;12.73;;
12129;SDS011;6128;59.340;18.040;2024-03-02T02:10:14;16.40;;;12.43;;
12129;SDS011;6128;59.340;18.040;2024-03-02T02:12:42;13.67;;;12.23;;
12129;SDS011;6128;59.340;18.040;2024-03-02T02:15:22;15.47;;;13.03;;
12129;SDS011;6128;59.340;18.040;2024-03-02T02:17:50;17.80;;;13.07;;
12129;SDS011;6128;59.340;18.040;2024-03-02T02:20:17;15.33;;;12.60;;
12129;SDS011;6128;59.340;18.040;2024-03-02T02:22:56;18.83;;;13.33;;
12129;SDS011;6128;59.340;18.040;2024-03-02T02:25:24;16.40;;;13.33;;
12129;SDS011;6128;59.340;18.040;2024-03-02T02:27:51;14.87;;;13.00;;
12129;SDS011;6128;59.340;18.040;2024-03-02T02:30:19;14.60;;;12.80;;
12129;SDS011;6128;59.340;18.040;2024-03-02T02:32:47;18.40;;;12.87;;
12129;SDS011;6128;59.340;18.040;2024-03-02T02:35:14;14.60;;;12.50;;
12129;SDS011;6128;59.340;18.040;2024-03-02T02:37:41;15.00;;;12.40;;
12129;SDS011;6128;59.340;18.040;2024-03-02T02:40:11;15.70;;;12.33;;
12129;SDS011;6128;59.340;18.040;2024-03-02T02:42:39;15.47;;;12.23;;
12129;SDS011;6128;59.340;18.040;2024-03-02T02:45:06;14.80;;;13.13;;
12129;SDS011;6128;59.340;18.040;2024-03-02T02:47:34;16.93;;;13.73;;
12129;SDS011;6128;59.340;18.040;2024-03-02T02:50:01;16.00;;;12.83;;
12129;SDS011;6128;59.340;18.040;2024-03-02T02:52:32;15.13;;;12.27;;
12129;SDS011;6128;59.340;18.040;2024-03-02T02:55:01;17.57;;;13.90;;
12129;SDS011;6128;59.340;18.040;2024-03-02T02:57:33;17.97;;;13.00;;
12129;SDS011;6128;59.340;18.040;2024-03-02T03:00:03;15.33;;;13.03;;
12129;SDS011;6128;59.340;18.040;2024-03-02T03:02:35;17.57;;;13.50;;
12129;SDS011;6128;59.340;18.040;2024-03-02T03:05:07;17.87;;;13.17;;
12129;SDS011;6128;59.340;18.040;2024-03-02T03:07:35;18.47;;;13.40;;
12129;SDS011;6128;59.340;18.040;2024-03-02T03:10:02;15.40;;;13.77;;
12129;SDS011;6128;59.340;18.040;2024-03-02T03:12:31;16.77;;;13.93;;
12129;SDS011;6128;59.340;18.040;2024-03-02T03:15:01;17.60;;;12.90;;
12129;SDS011;6128;59.340;18.040;2024-03-02T03:17:29;15.77;;;13.33;;
12129;SDS011;6128;59.340;18.040;2024-03-02T03:19:56;19.70;;;14.03;;
12129;SDS011;6128;59.340;18.040;2024-03-02T03:22:23;17.77;;;14.57;;
12129;SDS011;6128;59.340;18.040;2024-03-02T03:24:50;17.60;;;14.67;;
12129;SDS011;6128;59.340;18.040;2024-03-02T03:27:17;16.80;;;13.97;;
12129;SDS011;6128;59.340;18.040;2024-03-02T03:29:46;17.87;;;13.73;;
12129;SDS011;6128;59.340;18.040;2024-03-02T03:32:13;18.80;;;13.30;;
12129;SDS011;6128;59.340;18.040;2024-03-02T03:34:40;17.97;;;13.10;;
12129;SDS011;6128;59.340;18.040;2024-03-02T03:37:07;15.63;;;13.83;;
12129;SDS011;6128;59.340;18.040;2024-03-02T03:39:34;18.53;;;15.07;;
12129;SDS011;6128;59.340;18.040;2024-03-02T03:42:02;17.47;;;14.27;;
12129;SDS011;6128;59.340;18.040;2024-03-02T03:44:29;21.23;;;14.43;;
12129;SDS011;6128;59.340;18.040;2024-03-02T03:46:57;18.07;;;13.97;;
12129;SDS011;6128;59.340;18.040;2024-03-02T03:49:26;18.63;;;14.27;;
12129;SDS011;6128;59.340;18.040;2024-03-02T03:51:53;16.60;;;13.67;;
12129;SDS011;6128;59.340;18.040;2024-03-02T03:54:20;16.47;;;14.13;;
12129;SDS011;6128;59.340;18.040;2024-03-02T03:56:47;15.87;;;14.07;;
12129;SDS011;6128;59.340;18.040;2024-03-02T03:59:14;20.10;;;14.10;;
12129;SDS011;6128;59.340;18.040;2024-03-02T04:01:41;16.63;;;13.93;;
12129;SDS011;6128;59.340;18.040;2024-03-02T04:04:09;17.63;;;14.80;;
12129;SDS011;6128;59.340;18.040;2024-03-02T04:06:36;19.33;;;14.33;;
12129;SDS011;6128;59.340;18.040;2024-03-02T04:09:03;19.40;;;14.40;;
12129;SDS011;6128;59.340;18.040;2024-03-02T04:11:30;17.27;;;14.37;;
12129;SDS011;6128;59.340;18.040;2024-03-02T04:13:57;17.03;;;13.97;;
12129;SDS011;6128;59.340;18.040;2024-03-02T04:16:24;17.10;;;14.13;;
12129;SDS011;6128;59.340;18.040;2024-03-02T04:18:51;17.87;;;13.57;;
12129;SDS011;6128;59.340;18.040;2024-03-02T04:21:20;18.37;;;13.57;;
12129;SDS011;6128;59.340;18.040;2024-03-02T04:23:47;18.87;;;14.10;;
12129;SDS011;6128;59.340;18.040;2024-03-02T04:26:14;18.33;;;13.97;;
12129;SDS011;6128;59.340;18.040;2024-03-02T04:28:47;15.77;;;13.20;;
12129;SDS011;6128;59.340;18.040;2024-03-02T04:31:14;16.30;;;14.60;;
12129;SDS011;6128;59.340;18.040;2024-03-02T04:33:41;16.33;;;13.93;;
12129;SDS011;6128;59.340;18.040;2024-03-02T04:36:09;15.60;;;13.93;;
12129;SDS011;6128;59.340;18.040;2024-03-02T04:38:38;15.07;;;13.47;;
12129;SDS011;6128;59.340;18.040;2024-03-02T04:41:05;16.67;;;13.00;;
12129;SDS011;6128;59.340;18.040;2024-03-02T04:43:32;16.53;;;13.33;;
12129;SDS011;6128;59.340;18.040;2024-03-02T04:45:59;17.23;;;13.50;;
12129;SDS011;6128;59.340;18.040;2024-03-02T04:48:27;16.23;;;13.43;;
12129;SDS011;6128;59.340;18.040;2024-03-02T04:50:54;16.80;;;13.77;;
12129;SDS011;6128;59.340;18.040;2024-03-02T04:53:20;16.00;;;13.53;;
12129;SDS011;6128;59.340;18.040;2024-03-02T04:55:48;17.40;;;14.73;;
12129;SDS011;6128;59.340;18.040;2024-03-02T04:58:45;15.80;;;13.27;;
12129;SDS011;6128;59.340;18.040;2024-03-02T05:01:12;19.97;;;14.10;;
12129;SDS011;6128;59.340;18.040;2024-03-02T05:03:41;17.40;;;14.23;;
12129;SDS011;6128;59.340;18.040;2024-03-02T05:06:08;18.40;;;14.27;;
12129;SDS011;6128;59.340;18.040;2024-03-02T05:08:36;16.87;;;14.27;;
12129;SDS011;6128;59.340;18.040;2024-03-02T05:11:04;20.00;;;14.63;;
12129;SDS011;6128;59.340;18.040;2024-03-02T05:13:45;18.60;;;13.20;;
12129;SDS011;6128;59.340;18.040;2024-03-02T05:16:13;19.53;;;14.87;;
12129;SDS011;6128;59.340;18.040;2024-03-02T05:18:40;19.07;;;14.30;;
12129;SDS011;6128;59.340;18.040;2024-03-02T05:21:07;18.43;;;14.60;;
12129;SDS011;6128;59.340;18.040;2024-03-02T05:23:34;18.47;;;14.60;;
12129;SDS011;6128;59.340;18.040;2024-03-02T05:26:02;16.57;;;13.97;;
12129;SDS011;6128;59.340;18.040;2024-03-02T05:28:30;20.07;;;14.47;;
12129;SDS011;6128;59.340;18.040;2024-03-02T05:30:57;19.83;;;14.47;;
12129;SDS011;6128;59.340;18.040;2024-03-02T05:33:24;18.40;;;14.10;;
12129;SDS011;6128;59.340;18.040;2024-03-02T05:35:52;16.60;;;13.27;;
12129;SDS011;6128;59.340;18.040;2024-03-02T05:38:19;18.37;;;14.73;;
12129;SDS011;6128;59.340;18.040;2024-03-02T05:40:47;16.87;;;13.13;;
12129;SDS011;6128;59.340;18.040;2024-03-02T05:43:14;17.03;;;13.47;;
12129;SDS011;6128;59.340;18.040;2024-03-02T05:45:42;19.07;;;14.73;;
12129;SDS011;6128;59.340;18.040;2024-03-02T05:48:09;16.87;;;12.83;;
12129;SDS011;6128;59.340;18.040;2024-03-02T05:50:36;17.53;;;12.83;;
12129;SDS011;6128;59.340;18.040;2024-03-02T05:53:04;19.83;;;13.63;;
12129;SDS011;6128;59.340;18.040;2024-03-02T05:55:31;18.43;;;13.63;;
12129;SDS011;6128;59.340;18.040;2024-03-02T05:57:58;16.87;;;14.00;;
12129;SDS011;6128;59.340;18.040;2024-03-02T06:00:40;16.60;;;14.80;;
12129;SDS011;6128;59.340;18.040;2024-03-02T06:03:09;15.87;;;13.30;;
12129;SDS011;6128;59.340;18.040;2024-03-02T06:05:36;18.00;;;12.97;;
12129;SDS011;6128;59.340;18.040;2024-03-02T06:08:03;17.63;;;13.47;;
12129;SDS011;6128;59.340;18.040;2024-03-02T06:10:30;16.87;;;13.63;;
12129;SDS011;6128;59.340;18.040;2024-03-02T06:12:57;16.00;;;13.37;;
12129;SDS011;6128;59.340;18.040;2024-03-02T06:15:25;18.93;;;13.83;;
12129;SDS011;6128;59.340;18.040;2024-03-02T06:17:53;16.30;;;13.50;;
12129;SDS011;6128;59.340;18.040;2024-03-02T06:20:20;16.93;;;13.03;;
12129;SDS011;6128;59.340;18.040;2024-03-02T06:22:47;16.10;;;12.43;;
12129;SDS011;6128;59.340;18.040;2024-03-02T06:25:14;15.60;;;12.33;;
12129;SDS011;6128;59.340;18.040;2024-03-02T06:27:41;16.80;;;12.90;;
12129;SDS011;6128;59.340;18.040;2024-03-02T06:30:09;14.90;;;12.73;;
12129;SDS011;6128;59.340;18.040;2024-03-02T06:32:37;16.03;;;12.60;;
12129;SDS011;6128;59.340;18.040;2024-03-02T06:35:06;18.20;;;13.10;;
12129;SDS011;6128;59.340;18.040;2024-03-02T06:37:35;16.13;;;13.07;;
12129;SDS011;6128;59.340;18.040;2024-03-02T06:40:02;13.93;;;12.43;;
12129;SDS011;6128;59.340;18.040;2024-03-02T06:42:32;15.53;;;12.07;;
12129;SDS011;6128;59.340;18.040;2024-03-02T06:44:59;13.80;;;12.07;;
12129;SDS011;6128;59.340;18.040;2024-03-02T06:47:26;12.83;;;11.00;;
12129;SDS011;6128;59.340;18.040;2024-03-02T06:49:53;15.60;;;11.80;;
12129;SDS011;6128;59.340;18.040;2024-03-02T06:52:23;13.33;;;11.20;;
12129;SDS011;6128;59.340;18.040;2024-03-02T06:54:51;15.53;;;12.10;;
12129;SDS011;6128;59.340;18.040;2024-03-02T06:57:18;16.03;;;12.10;;
12129;SDS011;6128;59.340;18.040;2024-03-02T06:59:46;16.60;;;12.23;;
12129;SDS011;6128;59.340;18.040;2024-03-02T07:02:15;16.43;;;12.10;;
12129;SDS011;6128;59.340;18.040;2024-03-02T07:04:42;12.97;;;10.63;;
12129;SDS011;6128;59.340;18.040;2024-03-02T07:07:10;15.13;;;11.63;;
12129;SDS011;6128;59.340;18.040;2024-03-02T07:09:38;13.43;;;10.83;;
12129;SDS011;6128;59.340;18.040;2024-03-02T07:12:05;14.20;;;12.10;;
12129;SDS011;6128;59.340;18.040;2024-03-02T07:14:33;13.03;;;10.93;;
12129;SDS011;6128;59.340;18.040;2024-03-02T07:17:17;14.57;;;11.03;;
12129;SDS011;6128;59.340;18.040;2024-03-02T07:19:44;12.77;;;11.47;;
12129;SDS011;6128;59.340;18.040;2024-03-02T07:22:12;13.07;;;11.13;;
12129;SDS011;6128;59.340;18.040;2024-03-02T07:24:40;14.50;;;11.30;;
12129;SDS011;6128;59.340;18.040;2024-03-02T07:27:08;13.53;;;10.40;;
12129;SDS011;6128;59.340;18.040;2024-03-02T07:29:35;14.40;;;11.33;;
12129;SDS011;6128;59.340;18.040;2024-03-02T07:32:03;11.10;;;9.90;;
12129;SDS011;6128;59.340;18.040;2024-03-02T07:34:30;14.80;;;10.50;;
12129;SDS011;6128;59.340;18.040;2024-03-02T07:36:57;12.33;;;10.80;;
12129;SDS011;6128;59.340;18.040;2024-03-02T07:39:25;12.20;;;10.83;;
12129;SDS011;6128;59.340;18.040;2024-03-02T07:41:54;11.27;;;9.97;;
12129;SDS011;6128;59.340;18.040;2024-03-02T07:44:21;11.53;;;9.97;;
12129;SDS011;6128;59.340;18.040;2024-03-02T07:46:48;12.60;;;11.07;;
12129;SDS011;6128;59.340;18.040;2024-03-02T07:49:16;12.43;;;11.13;;
12129;SDS011;6128;59.340;18.040;2024-03-02T07:51:43;12.63;;;10.00;;
12129;SDS011;6128;59.340;18.040;2024-03-02T07:54:10;15.53;;;10.43;;
12129;SDS011;6128;59.340;18.040;2024-03-02T07:56:38;12.47;;;11.17;;
12129;SDS011;6128;59.340;18.040;2024-03-02T07:59:06;13.73;;;10.77;;
12129;SDS011;6128;59.340;18.040;2024-03-02T08:01:33;11.97;;;10.43;;
12129;SDS011;6128;59.340;18.040;2024-03-02T08:04:01;14.50;;;10.67;;
12129;SDS011;6128;59.340;18.040;2024-03-02T08:06:28;12.13;;;10.83;;
12129;SDS011;6128;59.340;18.040;2024-03-02T08:08:56;13.27;;;10.83;;
12129;SDS011;6128;59.340;18.040;2024-03-02T08:11:24;12.70;;;10.63;;
12129;SDS011;6128;59.340;18.040;2024-03-02T08:13:52;12.97;;;11.17;;
12129;SDS011;6128;59.340;18.040;2024-03-02T08:16:21;12.20;;;11.00;;
12129;SDS011;6128;59.340;18.040;2024-03-02T08:18:50;11.40;;;10.23;;
12129;SDS011;6128;59.340;18.040;2024-03-02T08:21:18;13.83;;;10.57;;
12129;SDS011;6128;59.340;18.040;2024-03-02T08:23:45;11.20;;;10.10;;
12129;SDS011;6128;59.340;18.040;2024-03-02T08:26:12;12.10;;;10.83;;
12129;SDS011;6128;59.340;18.040;2024-03-02T08:28:39;14.00;;;10.43;;
12129;SDS011;6128;59.340;18.040;2024-03-02T08:31:06;13.07;;;9.90;;
12129;SDS011;6128;59.340;18.040;2024-03-02T08:33:35;14.67;;;11.27;;
12129;SDS011;6128;59.340;18.040;2024-03-02T08:36:02;11.63;;;10.27;;
12129;SDS011;6128;59.340;18.040;2024-03-02T08:38:31;13.40;;;10.50;;
12129;SDS011;6128;59.340;18.040;2024-03-02T08:40:58;12.53;;;9.50;;
12129;SDS011;6128;59.340;18.040;2024-03-02T08:43:25;10.83;;;9.70;;
12129;SDS011;6128;59.340;18.040;2024-03-02T08:45:52;12.80;;;9.87;;
12129;SDS011;6128;59.340;18.040;2024-03-02T08:48:20;14.60;;;10.67;;
12129;SDS011;6128;59.340;18.040;2024-03-02T08:50:49;13.33;;;10.27;;
12129;SDS011;6128;59.340;18.040;2024-03-02T08:53:16;10.40;;;8.77;;
12129;SDS011;6128;59.340;18.040;2024-03-02T08:55:44;13.03;;;9.53;;
12129;SDS011;6128;59.340;18.040;2024-03-02T08:58:12;11.10;;;10.00;;
12129;SDS011;6128;59.340;18.040;2024-03-02T09:00:39;10.57;;;9.47;;
12129;SDS011;6128;59.340;18.040;2024-03-02T09:03:06;12.57;;;9.37;;
12129;SDS011;6128;59.340;18.040;2024-03-02T09:05:34;12.87;;;9.47;;
12129;SDS011;6128;59.340;18.040;2024-03-02T09:08:03;11.43;;;9.17;;
12129;SDS011;6128;59.340;18.040;2024-03-02T09:10:30;11.10;;;8.87;;
12129;SDS011;6128;59.340;18.040;2024-03-02T09:12:57;11.77;;;9.67;;
12129;SDS011;6128;59.340;18.040;2024-03-02T09:15:25;12.40;;;9.80;;
12129;SDS011;6128;59.340;18.040;2024-03-02T09:17:52;12.80;;;10.27;;
12129;SDS011;6128;59.340;18.040;2024-03-02T09:20:19;13.00;;;8.90;;
12129;SDS011;6128;59.340;18.040;2024-03-02T09:22:46;12.43;;;9.67;;
12129;SDS011;6128;59.340;18.040;2024-03-02T09:25:15;12.73;;;9.73;;
12129;SDS011;6128;59.340;18.040;2024-03-02T09:27:42;10.87;;;9.73;;
12129;SDS011;6128;59.340;18.040;2024-03-02T09:30:09;12.10;;;9.73;;
12129;SDS011;6128;59.340;18.040;2024-03-02T09:32:38;11.27;;;9.83;;
12129;SDS011;6128;59.340;18.040;2024-03-02T09:35:06;12.07;;;9.20;;
12129;SDS011;6128;59.340;18.040;2024-03-02T09:37:34;12.77;;;9.90;;
12129;SDS011;6128;59.340;18.040;2024-03-02T09:40:01;10.23;;;9.17;;
12129;SDS011;6128;59.340;18.040;2024-03-02T09:42:29;12.03;;;9.20;;
12129;SDS011;6128;59.340;18.040;2024-03-02T09:44:57;10.03;;;9.07;;
12129;SDS011;6128;59.340;18.040;2024-03-02T09:47:24;10.50;;;9.40;;
12129;SDS011;6128;59.340;18.040;2024-03-02T09:49:51;11.53;;;9.40;;
12129;SDS011;6128;59.340;18.040;2024-03-02T09:52:18;10.67;;;9.30;;
12129;SDS011;6128;59.340;18.040;2024-03-02T09:54:47;10.97;;;9.30;;
12129;SDS011;6128;59.340;18.040;2024-03-02T09:57:14;9.77;;;8.63;;
12129;SDS011;6128;59.340;18.040;2024-03-02T09:59:43;10.47;;;8.80;;
12129;SDS011;6128;59.340;18.040;2024-03-02T10:02:11;9.77;;;8.40;;
12129;SDS011;6128;59.340;18.040;2024-03-02T10:04:38;10.47;;;9.10;;
12129;SDS011;6128;59.340;18.040;2024-03-02T10:07:12;10.30;;;8.87;;
12129;SDS011;6128;59.340;18.040;2024-03-02T10:09:40;11.10;;;9.27;;
12129;SDS011;6128;59.340;18.040;2024-03-02T10:12:08;10.10;;;9.10;;
12129;SDS011;6128;59.340;18.040;2024-03-02T10:14:36;11.30;;;9.50;;
12129;SDS011;6128;59.340;18.040;2024-03-02T10:17:06;10.30;;;9.27;;
12129;SDS011;6128;59.340;18.040;2024-03-02T10:19:33;9.77;;;8.67;;
12129;SDS011;6128;59.340;18.040;2024-03-02T10:22:02;12.40;;;8.83;;
12129;SDS011;6128;59.340;18.040;2024-03-02T10:24:40;10.53;;;9.37;;
12129;SDS011;6128;59.340;18.040;2024-03-02T10:27:10;11.67;;;9.57;;
12129;SDS011;6128;59.340;18.040;2024-03-02T10:29:42;9.70;;;8.47;;
12129;SDS011;6128;59.340;18.040;2024-03-02T10:32:13;10.50;;;9.27;;
12129;SDS011;6128;59.340;18.040;2024-03-02T10:34:41;12.83;;;10.07;;
12129;SDS011;6128;59.340;18.040;2024-03-02T10:37:26;13.33;;;9.73;;
12129;SDS011;6128;59.340;18.040;2024-03-02T10:39:54;9.63;;;8.63;;
12129;SDS011;6128;59.340;18.040;2024-03-02T10:42:21;10.73;;;9.23;;
12129;SDS011;6128;59.340;18.040;2024-03-02T10:44:50;9.80;;;8.67;;
12129;SDS011;6128;59.340;18.040;2024-03-02T10:47:17;10.70;;;9.00;;
12129;SDS011;6128;59.340;18.040;2024-03-02T10:49:47;12.00;;;9.37;;
12129;SDS011;6128;59.340;18.040;2024-03-02T10:52:17;10.40;;;8.70;;
12129;SDS011;6128;59.340;18.040;2024-03-02T10:54:46;10.10;;;8.90;;
12129;SDS011;6128;59.340;18.040;2024-03-02T10:57:13;9.97;;;8.87;;
12129;SDS011;6128;59.340;18.040;2024-03-02T10:59:45;12.33;;;9.70;;
12129;SDS011;6128;59.340;18.040;2024-03-02T11:02:18;10.97;;;9.30;;
12129;SDS011;6128;59.340;18.040;2024-03-02T11:04:48;9.97;;;8.93;;
12129;SDS011;6128;59.340;18.040;2024-03-02T11:07:18;10.00;;;8.70;;
12129;SDS011;6128;59.340;18.040;2024-03-02T11:09:51;10.60;;;9.50;;
12129;SDS011;6128;59.340;18.040;2024-03-02T11:12:23;11.13;;;9.13;;
12129;SDS011;6128;59.340;18.040;2024-03-02T11:14:54;10.07;;;9.03;;
12129;SDS011;6128;59.340;18.040;2024-03-02T11:17:22;11.63;;;10.37;;
12129;SDS011;6128;59.340;18.040;2024-03-02T11:19:51;10.03;;;8.57;;
12129;SDS011;6128;59.340;18.040;2024-03-02T11:22:19;12.87;;;9.40;;
12129;SDS011;6128;59.340;18.040;2024-03-02T11:24:51;9.73;;;8.40;;
12129;SDS011;6128;59.340;18.040;2024-03-02T11:33:18;10.13;;;8.90;;
12129;SDS011;6128;59.340;18.040;2024-03-02T11:35:52;8.80;;;8.00;;
12129;SDS011;6128;59.340;18.040;2024-03-02T11:38:19;9.30;;;8.37;;
12129;SDS011;6128;59.340;18.040;2024-03-02T11:40:48;9.73;;;8.73;;
12129;SDS011;6128;59.340;18.040;2024-03-02T11:43:15;9.47;;;8.47;;
12129;SDS011;6128;59.340;18.040;2024-03-02T11:45:43;10.07;;;8.87;;
12129;SDS011;6128;59.340;18.040;2024-03-02T11:48:11;11.97;;;8.73;;
12129;SDS011;6128;59.340;18.040;2024-03-02T11:50:40;10.40;;;9.30;;
12129;SDS011;6128;59.340;18.040;2024-03-02T11:53:09;10.93;;;9.23;;
12129;SDS011;6128;59.340;18.040;2024-03-02T11:55:39;9.83;;;8.03;;
12129;SDS011;6128;59.340;18.040;2024-03-02T11:58:08;10.00;;;8.33;;
12129;SDS011;6128;59.340;18.040;2024-03-02T12:00:35;11.47;;;8.67;;
12129;SDS011;6128;59.340;18.040;2024-03-02T12:03:03;10.20;;;8.53;;
12129;SDS011;6128;59.340;18.040;2024-03-02T12:05:33;11.70;;;7.90;;
12129;SDS011;6128;59.340;18.040;2024-03-02T12:08:01;11.57;;;9.03;;
12129;SDS011;6128;59.340;18.040;2024-03-02T12:10:29;10.50;;;8.60;;
12129;SDS011;6128;59.340;18.040;2024-03-02T12:12:56;10.40;;;9.17;;
12129;SDS011;6128;59.340;18.040;2024-03-02T12:15:27;11.20;;;8.93;;
12129;SDS011;6128;59.340;18.040;2024-03-02T12:17:58;9.90;;;8.67;;
12129;SDS011;6128;59.340;18.040;2024-03-02T12:20:26;11.17;;;9.03;;
12129;SDS011;6128;59.340;18.040;2024-03-02T12:22:54;10.03;;;8.13;;
12129;SDS011;6128;59.340;18.040;2024-03-02T12:25:23;9.27;;;7.80;;
12129;SDS011;6128;59.340;18.040;2024-03-02T12:27:53;11.07;;;9.00;;
12129;SDS011;6128;59.340;18.040;2024-03-02T12:30:21;9.57;;;8.10;;
12129;SDS011;6128;59.340;18.040;2024-03-02T12:32:50;9.80;;;8.67;;
12129;SDS011;6128;59.340;18.040;2024-03-02T12:35:17;12.40;;;9.93;;
12129;SDS011;6128;59.340;18.040;2024-03-02T12:37:46;12.47;;;9.33;;
12129;SDS011;6128;59.340;18.040;2024-03-02T12:40:15;10.60;;;9.43;;
12129;SDS011;6128;59.340;18.040;2024-03-02T12:42:43;9.57;;;8.67;;
12129;SDS011;6128;59.340;18.040;2024-03-02T12:45:11;12.07;;;8.87;;
12129;SDS011;6128;59.340;18.040;2024-03-02T12:47:39;11.57;;;9.03;;
12129;SDS011;6128;59.340;18.040;2024-03-02T12:50:08;10.93;;;9.77;;
12129;SDS011;6128;59.340;18.040;2024-03-02T12:52:36;10.03;;;8.53;;
12129;SDS011;6128;59.340;18.040;2024-03-02T12:55:04;9.73;;;8.53;;
12129;SDS011;6128;59.340;18.040;2024-03-02T12:57:32;13.40;;;9.30;;
12129;SDS011;6128;59.340;18.040;2024-03-02T13:00:00;8.93;;;8.07;;
12129;SDS011;6128;59.340;18.040;2024-03-02T13:02:34;10.47;;;8.97;;
12129;SDS011;6128;59.340;18.040;2024-03-02T13:05:03;11.83;;;8.20;;
12129;SDS011;6128;59.340;18.040;2024-03-02T13:07:37;10.00;;;9.00;;
12129;SDS011;6128;59.340;18.040;2024-03-02T13:10:06;11.23;;;8.57;;
12129;SDS011;6128;59.340;18.040;2024-03-02T13:12:34;10.57;;;8.53;;
12129;SDS011;6128;59.340;18.040;2024-03-02T13:15:02;9.10;;;7.80;;
12129;SDS011;6128;59.340;18.040;2024-03-02T13:17:30;8.83;;;7.77;;
12129;SDS011;6128;59.340;18.040;2024-03-02T13:19:59;9.77;;;7.77;;
12129;SDS011;6128;59.340;18.040;2024-03-02T13:22:26;10.33;;;8.50;;
12129;SDS011;6128;59.340;18.040;2024-03-02T13:24:55;10.07;;;8.23;;
12129;SDS011;6128;59.340;18.040;2024-03-02T13:27:22;9.90;;;7.90;;
12129;SDS011;6128;59.340;18.040;2024-03-02T13:29:49;8.80;;;7.90;;
12129;SDS011;6128;59.340;18.040;2024-03-02T13:32:17;9.93;;;8.97;;
12129;SDS011;6128;59.340;18.040;2024-03-02T13:34:49;11.57;;;8.13;;
12129;SDS011;6128;59.340;18.040;2024-03-02T13:37:16;9.67;;;8.30;;
12129;SDS011;6128;59.340;18.040;2024-03-02T13:39:44;10.10;;;8.13;;
12129;SDS011;6128;59.340;18.040;2024-03-02T13:42:12;10.57;;;7.80;;
12129;SDS011;6128;59.340;18.040;2024-03-02T13:44:40;10.03;;;8.47;;
12129;SDS011;6128;59.340;18.040;2024-03-02T13:47:10;8.87;;;7.97;;
12129;SDS011;6128;59.340;18.040;2024-03-02T13:49:37;8.17;;;7.37;;
12129;SDS011;6128;59.340;18.040;2024-03-02T13:52:08;9.50;;;7.13;;
12129;SDS011;6128;59.340;18.040;2024-03-02T13:54:38;11.07;;;7.83;;
12129;SDS011;6128;59.340;18.040;2024-03-02T13:57:07;10.13;;;7.93;;
12129;SDS011;6128;59.340;18.040;2024-03-02T13:59:36;13.77;;;7.30;;
12129;SDS011;6128;59.340;18.040;2024-03-02T14:02:04;11.87;;;8.10;;
12129;SDS011;6128;59.340;18.040;2024-03-02T14:04:32;10.10;;;7.67;;
12129;SDS011;6128;59.340;18.040;2024-03-02T14:07:00;7.73;;;7.03;;
12129;SDS011;6128;59.340;18.040;2024-03-02T14:09:28;9.30;;;7.27;;
12129;SDS011;6128;59.340;18.040;2024-03-02T14:11:55;8.70;;;7.80;;
12129;SDS011;6128;59.340;18.040;2024-03-02T14:14:22;9.83;;;7.57;;
12129;SDS011;6128;59.340;18.040;2024-03-02T14:16:51;11.13;;;7.27;;
12129;SDS011;6128;59.340;18.040;2024-03-02T14:19:18;11.53;;;7.43;;
12129;SDS011;6128;59.340;18.040;2024-03-02T14:21:46;10.37;;;7.70;;
12129;SDS011;6128;59.340;18.040;2024-03-02T14:24:13;8.83;;;7.93;;
12129;SDS011;6128;59.340;18.040;2024-03-02T14:26:41;12.43;;;8.07;;
12129;SDS011;6128;59.340;18.040;2024-03-02T14:29:10;9.83;;;8.50;;
12129;SDS011;6128;59.340;18.040;2024-03-02T14:31:38;8.70;;;7.67;;
12129;SDS011;6128;59.340;18.040;2024-03-02T14:34:15;9.47;;;8.23;;
12129;SDS011;6128;59.340;18.040;2024-03-02T14:36:45;9.13;;;6.90;;
12129;SDS011;6128;59.340;18.040;2024-03-02T14:39:12;9.47;;;8.53;;
12129;SDS011;6128;59.340;18.040;2024-03-02T14:41:45;9.60;;;8.23;;